Time;durP1;ratioP1;P1;durP2;ratioP2;P2;SDS_P1;SDS_P2;PMS_P1;PMS_P2;Temp;Humidity;BMP_temperature;BMP_pressure;BME280_temperature;BME280_humidity;BME280_pressure;Samples;Min_cycle;Max_cycle;Signal;HPM_P1;HPM_P2
2022/12/26 00:01:20;;;;;;;17.70;8.00;;;12.50;99.90;;;;;;5011452;28;21054;-62
2022/12/26 00:03:47;;;;;;;33.40;12.90;;;12.50;99.90;;;;;;5012675;28;20981;-62
2022/12/26 00:06:16;;;;;;;12.67;7.10;;;12.50;99.90;;;;;;5012046;28;20489;-61
2022/12/26 00:08:43;;;;;;;26.63;12.03;;;12.50;99.90;;;;;;5013656;28;20489;-62
2022/12/26 00:11:11;;;;;;;16.60;7.43;;;12.50;99.90;;;;;;5009140;28;20485;-61
2022/12/26 00:13:39;;;;;;;24.73;11.60;;;12.60;99.90;;;;;;5011580;28;20484;-62
2022/12/26 00:16:07;;;;;;;15.03;6.80;;;;;;;;;;5012111;28;20594;-61
2022/12/26 00:18:34;;;;;;;17.27;7.47;;;12.70;99.90;;;;;;5010329;28;20500;-62
2022/12/26 00:21:00;;;;;;;21.50;9.67;;;12.70;99.90;;;;;;5010555;28;20843;-62
2022/12/26 00:23:28;;;;;;;22.37;9.77;;;12.80;99.90;;;;;;5011508;28;21101;-62
2022/12/26 00:25:55;;;;;;;24.93;11.50;;;12.80;99.90;;;;;;5002590;28;20469;-62
2022/12/26 00:28:22;;;;;;;12.83;7.10;;;12.80;99.90;;;;;;5012788;28;20574;-63
2022/12/26 00:30:49;;;;;;;32.80;13.93;;;;;;;;;;5010945;28;20894;-63
2022/12/26 00:33:15;;;;;;;11.57;6.17;;;12.80;99.90;;;;;;5011283;28;20481;-62
2022/12/26 00:35:42;;;;;;;20.17;9.70;;;12.90;99.90;;;;;;5023078;28;20512;-63
2022/12/26 00:38:08;;;;;;;11.57;5.80;;;13.00;99.90;;;;;;5014118;28;20492;-63
2022/12/26 00:40:41;;;;;;;21.73;9.10;;;12.80;99.90;;;;;;5017968;28;20521;-62
2022/12/26 00:43:08;;;;;;;14.70;7.43;;;12.90;99.90;;;;;;5014567;28;20482;-62
2022/12/26 00:45:35;;;;;;;21.60;8.27;;;12.90;99.90;;;;;;5019319;28;20489;-62
2022/12/26 00:48:01;;;;;;;13.27;6.50;;;12.90;99.90;;;;;;5021787;28;20469;-62
2022/12/26 00:50:28;;;;;;;21.00;9.00;;;13.00;99.90;;;;;;5012804;28;20530;-63
2022/12/26 00:52:55;;;;;;;30.43;11.20;;;12.90;99.90;;;;;;5023151;28;20473;-62
2022/12/26 00:55:22;;;;;;;17.77;8.97;;;12.90;99.90;;;;;;5013886;28;20519;-62
2022/12/26 00:57:50;;;;;;;24.13;10.00;;;13.00;99.90;;;;;;5005062;28;20482;-62
2022/12/26 01:00:17;;;;;;;16.83;7.57;;;13.00;99.90;;;;;;5023325;28;21469;-62
2022/12/26 01:02:43;;;;;;;24.70;11.13;;;13.00;99.90;;;;;;5014692;28;20497;-62
2022/12/26 01:05:11;;;;;;;6.77;4.23;;;13.00;99.90;;;;;;5017918;28;20485;-62
2022/12/26 01:07:39;;;;;;;15.73;7.27;;;13.10;99.90;;;;;;5014592;28;20473;-62
2022/12/26 01:10:08;;;;;;;20.47;9.60;;;13.20;99.90;;;;;;5024598;28;20905;-62
2022/12/26 01:12:35;;;;;;;13.23;6.00;;;13.20;99.90;;;;;;5017109;28;20713;-62
2022/12/26 01:15:04;;;;;;;11.00;5.30;;;13.20;99.90;;;;;;5014049;28;20491;-62
2022/12/26 01:17:30;;;;;;;19.00;8.43;;;13.30;99.90;;;;;;5023180;28;21013;-61
2022/12/26 01:19:57;;;;;;;27.47;10.30;;;13.20;99.90;;;;;;5013443;28;21179;-62
2022/12/26 01:22:24;;;;;;;16.50;8.37;;;13.30;99.90;;;;;;5016924;28;20883;-62
2022/12/26 01:24:53;;;;;;;24.93;9.83;;;13.30;99.90;;;;;;5012505;28;20485;-62
2022/12/26 01:27:20;;;;;;;21.40;9.00;;;13.30;99.90;;;;;;5016563;28;20456;-62
2022/12/26 01:29:47;;;;;;;23.17;8.00;;;13.30;99.90;;;;;;5034483;28;20690;-62
2022/12/26 01:32:15;;;;;;;11.27;4.20;;;13.30;99.90;;;;;;5023060;28;20712;-62
2022/12/26 01:34:42;;;;;;;27.53;9.70;;;13.30;99.90;;;;;;5014148;28;20493;-61
2022/12/26 01:37:12;;;;;;;17.07;6.50;;;13.40;99.90;;;;;;5011567;28;20473;-60
2022/12/26 01:39:38;;;;;;;17.30;8.10;;;13.40;99.90;;;;;;5015515;28;20684;-62
2022/12/26 01:42:12;;;;;;;14.27;7.60;;;13.30;99.90;;;;;;5011119;28;20476;-62
2022/12/26 01:45:02;;;;;;;20.67;8.83;;;13.30;99.90;;;;;;5018514;28;20484;-62
2022/12/26 01:47:41;;;;;;;17.30;7.80;;;13.30;99.90;;;;;;5020086;28;20547;-61
2022/12/26 01:50:20;;;;;;;16.57;8.03;;;13.30;99.90;;;;;;5025569;28;20476;-61
2022/12/26 01:52:48;;;;;;;35.20;14.50;;;13.20;99.90;;;;;;5024892;28;20512;-62
2022/12/26 01:55:19;;;;;;;11.77;6.67;;;13.30;99.90;;;;;;5014649;28;20489;-61
2022/12/26 01:57:53;;;;;;;20.80;9.23;;;13.40;99.90;;;;;;5018300;28;20965;-62
2022/12/26 02:00:20;;;;;;;23.67;8.57;;;13.30;99.90;;;;;;5023382;28;20511;-62
2022/12/26 02:05:33;;;;;;;19.30;6.73;;;13.30;99.90;;;;;;5001542;28;20676;-61
2022/12/26 02:08:04;;;;;;;15.40;7.10;;;13.30;99.90;;;;;;5013088;28;20477;-62
2022/12/26 02:10:35;;;;;;;15.50;7.20;;;13.20;99.90;;;;;;5003906;28;20476;-62
2022/12/26 02:13:02;;;;;;;11.93;5.77;;;13.20;99.90;;;;;;5013776;28;20476;-62
2022/12/26 02:15:29;;;;;;;15.53;7.83;;;13.20;99.90;;;;;;5009857;28;20474;-62
2022/12/26 02:17:57;;;;;;;26.10;9.30;;;13.20;99.90;;;;;;5011943;28;20484;-62
2022/12/26 02:20:27;;;;;;;19.87;9.47;;;13.20;99.90;;;;;;5011064;28;20476;-62
2022/12/26 02:23:25;;;;;;;28.37;10.90;;;13.30;99.90;;;;;;5010917;28;20558;-62
2022/12/26 02:26:36;;;;;;;30.60;12.30;;;13.20;99.90;;;;;;5028559;28;20487;-62
2022/12/26 02:29:33;;;;;;;15.90;6.93;;;13.10;99.90;;;;;;5013499;28;20541;-62
2022/12/26 02:32:08;;;;;;;19.03;8.13;;;13.20;99.90;;;;;;5019727;28;20483;-62
2022/12/26 02:34:46;;;;;;;9.90;5.27;;;13.20;99.90;;;;;;5019514;28;20746;-62
2022/12/26 02:37:24;;;;;;;20.07;8.70;;;13.10;99.90;;;;;;5014190;28;21090;-62
2022/12/26 02:40:03;;;;;;;31.53;12.17;;;13.20;99.90;;;;;;5016174;28;20540;-62
2022/12/26 02:42:41;;;;;;;13.57;6.70;;;13.20;99.90;;;;;;5029006;28;20467;-62
2022/12/26 02:48:07;;;;;;;21.20;8.87;;;13.20;99.90;;;;;;5035325;28;20496;-61
2022/12/26 03:13:22;;;;;;;23.37;8.97;;;13.10;99.90;;;;;;5022142;28;20509;-62
2022/12/26 03:18:42;;;;;;;17.23;7.50;;;13.30;99.90;;;;;;4982008;28;21073;-61
2022/12/26 03:21:12;;;;;;;20.10;7.57;;;13.30;99.90;;;;;;5013082;28;20448;-61
2022/12/26 03:23:41;;;;;;;19.03;8.00;;;13.30;99.90;;;;;;5006987;28;20536;-61
2022/12/26 03:30:47;;;;;;;44.50;15.03;;;13.40;99.90;;;;;;5015231;28;20508;-62
2022/12/26 03:31:40;;;;;;;28.17;10.30;;;13.30;99.90;;;;;;5009047;28;21263;-61
2022/12/26 03:34:19;;;;;;;17.80;7.63;;;13.30;99.90;;;;;;5019253;28;20481;-61
2022/12/26 03:37:01;;;;;;;41.93;11.83;;;13.30;99.90;;;;;;5010316;28;20635;-62
2022/12/26 04:19:37;;;;;;;20.47;8.57;;;13.20;99.90;;;;;;5021082;28;20560;-62
2022/12/26 04:44:29;;;;;;;15.17;7.13;;;13.10;99.90;;;;;;5035702;28;20525;-62
2022/12/26 04:46:56;;;;;;;23.63;9.73;;;13.10;99.90;;;;;;5036187;28;20889;-62
2022/12/26 04:52:09;;;;;;;20.53;7.90;;;13.00;99.90;;;;;;5027895;28;20472;-62
2022/12/26 04:54:36;;;;;;;18.47;7.03;;;12.90;99.90;;;;;;5023431;28;20811;-62
2022/12/26 04:57:03;;;;;;;13.40;6.20;;;12.90;99.90;;;;;;5020603;28;20492;-62
2022/12/26 04:59:32;;;;;;;25.70;11.30;;;12.80;99.90;;;;;;5026754;28;20455;-62
2022/12/26 05:10:18;;;;;;;17.67;7.97;;;12.80;99.90;;;;;;5022367;28;20519;-61
2022/12/26 05:12:45;;;;;;;35.27;13.80;;;12.70;99.90;;;;;;5012898;28;20949;-61
2022/12/26 05:15:14;;;;;;;20.77;8.87;;;12.70;99.90;;;;;;5029791;28;20489;-62
2022/12/26 05:28:52;;;;;;;36.00;12.70;;;12.80;99.90;;;;;;5027899;28;20502;-61
2022/12/26 05:31:20;;;;;;;25.80;8.63;;;12.80;99.90;;;;;;5039689;28;20479;-62
2022/12/26 05:34:04;;;;;;;26.53;10.70;;;;;;;;;;5021688;28;20537;-61
2022/12/26 05:36:35;;;;;;;25.00;7.20;;;12.70;99.90;;;;;;4997919;28;20487;-61
2022/12/26 05:39:02;;;;;;;18.00;7.70;;;12.70;99.90;;;;;;5026226;28;20477;-62
2022/12/26 05:41:28;;;;;;;17.83;8.37;;;12.70;99.90;;;;;;5011047;28;20484;-62
2022/12/26 05:43:55;;;;;;;20.90;7.80;;;12.70;99.90;;;;;;5021150;28;20484;-62
2022/12/26 05:46:23;;;;;;;15.23;7.70;;;12.70;99.90;;;;;;5013690;28;20981;-62
2022/12/26 05:48:50;;;;;;;23.00;11.23;;;12.60;99.90;;;;;;5000091;28;20500;-62
2022/12/26 05:51:17;;;;;;;19.10;7.20;;;12.60;99.90;;;;;;5015275;28;20843;-62
2022/12/26 05:53:43;;;;;;;21.30;10.80;;;12.60;99.90;;;;;;5038222;28;20490;-62
2022/12/26 05:56:12;;;;;;;10.90;6.27;;;12.50;99.90;;;;;;5018082;28;20478;-61
2022/12/26 05:58:40;;;;;;;21.43;9.30;;;12.50;99.90;;;;;;5052219;28;20491;-61
2022/12/26 06:01:09;;;;;;;20.27;8.57;;;12.50;99.90;;;;;;5023449;28;20815;-63
2022/12/26 06:03:38;;;;;;;13.33;7.27;;;12.50;99.90;;;;;;4997849;28;20491;-62
2022/12/26 06:06:06;;;;;;;18.10;8.53;;;12.40;99.90;;;;;;5011699;28;20483;-62
2022/12/26 06:08:33;;;;;;;17.70;10.43;;;12.40;99.90;;;;;;5012650;28;20980;-63
2022/12/26 06:11:03;;;;;;;15.97;9.00;;;12.30;99.90;;;;;;5022272;28;20476;-63
2022/12/26 06:13:30;;;;;;;16.60;9.40;;;12.40;99.90;;;;;;5018228;28;20485;-63
2022/12/26 06:15:57;;;;;;;18.87;10.07;;;12.40;99.90;;;;;;5015646;28;20490;-63
2022/12/26 06:18:24;;;;;;;18.00;9.90;;;12.40;99.90;;;;;;5015208;28;20473;-62
2022/12/26 06:20:52;;;;;;;20.03;10.53;;;12.30;99.90;;;;;;5016223;28;20497;-63
2022/12/26 06:23:18;;;;;;;9.93;6.10;;;12.30;99.90;;;;;;5015832;28;20485;-63
2022/12/26 06:25:52;;;;;;;22.27;11.63;;;12.20;99.90;;;;;;4999631;28;21004;-63
2022/12/26 06:28:19;;;;;;;17.27;8.20;;;12.20;99.90;;;;;;5002199;28;20877;-63
2022/12/26 06:30:45;;;;;;;24.43;12.27;;;12.20;99.90;;;;;;5014483;28;20492;-62
2022/12/26 06:33:12;;;;;;;12.07;7.60;;;12.10;99.90;;;;;;5010628;28;20493;-63
2022/12/26 06:35:39;;;;;;;16.33;9.30;;;12.00;99.90;;;;;;5013165;28;20484;-63
2022/12/26 06:38:07;;;;;;;19.97;11.30;;;12.00;99.90;;;;;;5006334;28;20518;-63
2022/12/26 06:40:33;;;;;;;11.00;6.90;;;12.00;99.90;;;;;;5018067;28;20499;-62
2022/12/26 06:43:00;;;;;;;34.33;8.37;;;12.10;99.90;;;;;;5013087;28;20483;-62
2022/12/26 06:45:27;;;;;;;18.57;10.20;;;12.00;99.90;;;;;;5009406;28;20483;-62
2022/12/26 06:47:53;;;;;;;31.10;12.80;;;12.10;99.90;;;;;;5022480;28;21004;-61
2022/12/26 06:50:22;;;;;;;20.47;10.53;;;12.00;99.90;;;;;;5028548;28;21090;-61
2022/12/26 06:52:48;;;;;;;31.60;13.60;;;12.10;99.90;;;;;;5021420;28;20941;-61
2022/12/26 06:55:17;;;;;;;16.10;8.37;;;12.10;99.90;;;;;;5033204;28;20466;-62
2022/12/26 06:57:43;;;;;;;44.07;14.47;;;12.10;99.90;;;;;;5034364;28;20495;-62
2022/12/26 07:00:11;;;;;;;27.73;11.77;;;12.00;99.90;;;;;;5012178;28;20480;-62
2022/12/26 07:02:38;;;;;;;26.33;9.70;;;12.00;99.90;;;;;;5001694;28;20842;-62
2022/12/26 07:05:06;;;;;;;14.33;6.90;;;12.10;99.90;;;;;;5026850;28;20498;-62
2022/12/26 07:07:32;;;;;;;27.60;9.80;;;12.00;99.90;;;;;;5018580;28;21094;-63
2022/12/26 07:09:59;;;;;;;24.33;9.37;;;12.00;99.90;;;;;;5025762;28;20546;-62
2022/12/26 07:12:27;;;;;;;19.43;8.67;;;12.00;99.90;;;;;;5023691;28;20481;-63
2022/12/26 07:14:54;;;;;;;37.07;14.20;;;12.00;99.90;;;;;;5003503;28;20538;-62
2022/12/26 07:17:20;;;;;;;27.27;9.37;;;11.90;99.90;;;;;;5009822;28;20508;-61
2022/12/26 07:19:47;;;;;;;41.03;14.20;;;11.90;99.90;;;;;;4993593;28;20476;-62
2022/12/26 07:22:14;;;;;;;23.80;10.20;;;12.00;99.90;;;;;;5011318;28;20480;-63
2022/12/26 07:24:40;;;;;;;30.80;10.20;;;12.00;99.90;;;;;;5024731;28;20481;-62
2022/12/26 07:27:07;;;;;;;26.23;10.00;;;12.00;99.90;;;;;;5010471;28;21119;-61
2022/12/26 07:29:35;;;;;;;21.53;8.83;;;12.00;99.90;;;;;;5013842;28;20908;-61
2022/12/26 07:32:02;;;;;;;19.50;7.17;;;12.10;99.90;;;;;;5015002;28;21132;-62
2022/12/26 07:34:29;;;;;;;23.80;10.10;;;12.10;99.90;;;;;;5017036;28;20484;-61
2022/12/26 07:36:56;;;;;;;32.43;11.73;;;12.10;99.90;;;;;;4998697;28;21071;-61
2022/12/26 07:39:23;;;;;;;18.93;6.33;;;12.00;99.90;;;;;;5020252;28;21030;-62
2022/12/26 07:41:59;;;;;;;40.30;13.03;;;12.00;99.90;;;;;;5019162;28;20494;-61
2022/12/26 07:44:27;;;;;;;19.33;6.77;;;12.00;99.90;;;;;;5003856;28;20511;-61
2022/12/26 07:46:56;;;;;;;30.00;10.47;;;12.00;99.90;;;;;;5027245;28;20489;-61
2022/12/26 07:49:23;;;;;;;23.70;8.93;;;11.90;99.90;;;;;;5012786;28;21114;-62
2022/12/26 07:51:50;;;;;;;35.53;11.23;;;12.00;99.90;;;;;;4998693;28;21029;-61
2022/12/26 07:54:17;;;;;;;18.10;8.40;;;11.90;99.90;;;;;;5023141;28;20572;-61
2022/12/26 07:56:44;;;;;;;35.60;11.63;;;11.90;99.90;;;;;;5010602;28;20594;-61
2022/12/26 07:59:14;;;;;;;17.20;7.80;;;11.90;99.90;;;;;;5025176;28;20833;-61
2022/12/26 08:01:41;;;;;;;25.23;9.30;;;11.90;99.90;;;;;;5015257;28;21942;-61
2022/12/26 08:04:09;;;;;;;19.00;7.77;;;11.90;99.90;;;;;;5025752;28;21086;-60
2022/12/26 08:06:35;;;;;;;15.83;7.37;;;11.90;99.90;;;;;;5036357;28;20518;-61
2022/12/26 08:09:02;;;;;;;24.07;7.90;;;11.90;99.90;;;;;;5017611;28;20925;-61
2022/12/26 08:11:33;;;;;;;18.77;6.80;;;11.70;99.90;;;;;;5026065;28;20735;-61
2022/12/26 08:13:59;;;;;;;19.33;8.40;;;11.80;99.90;;;;;;5022221;28;20472;-62
2022/12/26 08:16:26;;;;;;;27.90;10.83;;;11.80;99.90;;;;;;5017620;28;20480;-61
2022/12/26 08:18:53;;;;;;;34.93;11.90;;;8.60;99.90;;;;;;4998667;28;20488;-62
2022/12/26 08:21:21;;;;;;;18.47;7.80;;;11.70;99.90;;;;;;5000544;28;20491;-61
2022/12/26 08:23:47;;;;;;;32.70;12.20;;;11.80;99.90;;;;;;5019650;28;20492;-62
2022/12/26 08:26:19;;;;;;;15.97;7.43;;;11.70;99.90;;;;;;5010189;28;20592;-62
2022/12/26 08:28:46;;;;;;;40.10;12.73;;;11.80;99.90;;;;;;5000133;28;21287;-61
2022/12/26 08:31:13;;;;;;;12.47;5.37;;;11.70;99.90;;;;;;5017700;28;21004;-61
2022/12/26 08:33:40;;;;;;;19.07;9.03;;;11.80;99.90;;;;;;5010903;28;20480;-61
2022/12/26 08:36:09;;;;;;;26.23;9.40;;;11.70;99.90;;;;;;5010913;28;20487;-62
2022/12/26 08:38:38;;;;;;;20.43;8.70;;;11.80;99.90;;;;;;5017817;28;20489;-61
2022/12/26 08:41:05;;;;;;;18.23;9.57;;;11.80;99.90;;;;;;5000466;28;20813;-61
2022/12/26 08:43:32;;;;;;;23.00;9.40;;;14.00;99.90;;;;;;5024368;28;20564;-61
2022/12/26 08:46:00;;;;;;;24.30;10.63;;;11.70;99.90;;;;;;5011319;28;20488;-61
2022/12/26 08:48:27;;;;;;;20.57;9.23;;;11.70;99.90;;;;;;5002384;28;20484;-62
2022/12/26 08:50:58;;;;;;;22.73;9.03;;;11.70;99.90;;;;;;5008425;28;20496;-61
2022/12/26 08:53:27;;;;;;;23.97;11.00;;;11.80;99.90;;;;;;4998297;28;20481;-61
2022/12/26 08:55:56;;;;;;;31.20;12.70;;;11.80;99.90;;;;;;5013509;28;20733;-61
2022/12/26 08:58:23;;;;;;;15.03;7.67;;;10.90;99.90;;;;;;5015142;28;21050;-62
2022/12/26 09:00:49;;;;;;;29.60;12.80;;;11.80;99.90;;;;;;5011587;28;20911;-61
2022/12/26 09:03:16;;;;;;;18.33;7.10;;;11.90;99.90;;;;;;5022251;28;20477;-61
2022/12/26 09:05:44;;;;;;;32.50;11.80;;;11.90;99.90;;;;;;5009465;28;20499;-61
2022/12/26 09:08:11;;;;;;;17.43;8.23;;;11.90;99.90;;;;;;5023398;28;20553;-61
2022/12/26 09:10:38;;;;;;;18.33;8.17;;;11.80;99.90;;;;;;5017601;28;21017;-62
2022/12/26 09:13:06;;;;;;;16.20;6.80;;;11.80;99.90;;;;;;5005794;28;20492;-61
2022/12/26 09:15:33;;;;;;;15.50;7.00;;;11.90;99.90;;;;;;4997006;28;20492;-62
2022/12/26 09:17:59;;;;;;;18.20;8.10;;;11.80;99.90;;;;;;5016013;28;20483;-60
2022/12/26 09:20:26;;;;;;;17.57;8.57;;;11.80;99.90;;;;;;5000535;28;20488;-61
2022/12/26 09:22:54;;;;;;;27.23;10.40;;;11.90;99.90;;;;;;5018485;28;20838;-61
2022/12/26 09:25:25;;;;;;;17.90;7.70;;;11.80;99.90;;;;;;5008104;28;20480;-62
2022/12/26 09:27:53;;;;;;;24.07;9.70;;;11.80;99.90;;;;;;5006453;28;20488;-62
2022/12/26 09:30:22;;;;;;;21.00;10.20;;;11.80;99.90;;;;;;5012461;28;20486;-62
2022/12/26 09:32:49;;;;;;;24.80;8.90;;;11.80;99.90;;;;;;4997164;28;20526;-61
2022/12/26 09:35:15;;;;;;;9.43;5.40;;;11.90;99.90;;;;;;5020295;28;20484;-62
2022/12/26 09:37:42;;;;;;;13.83;7.13;;;11.90;99.90;;;;;;5008806;28;20970;-62
2022/12/26 09:40:22;;;;;;;26.63;10.53;;;11.60;99.90;;;;;;4998589;28;20747;-61
2022/12/26 09:42:59;;;;;;;28.20;12.23;;;11.80;99.90;;;;;;5017682;28;20480;-62
2022/12/26 09:45:42;;;;;;;20.40;8.00;;;11.90;99.90;;;;;;5017161;28;21049;-62
2022/12/26 09:48:14;;;;;;;16.23;8.23;;;11.80;99.90;;;;;;5009597;28;20893;-61
2022/12/26 09:50:42;;;;;;;23.93;8.67;;;11.90;99.90;;;;;;5021634;28;20574;-61
2022/12/26 09:53:13;;;;;;;13.97;7.50;;;11.80;99.90;;;;;;5024929;28;20529;-61
2022/12/26 09:55:44;;;;;;;19.47;9.07;;;11.90;99.90;;;;;;5029309;28;20488;-62
2022/12/26 09:58:18;;;;;;;13.37;7.20;;;12.00;99.90;;;;;;5022381;28;20492;-62
2022/12/26 10:00:52;;;;;;;21.90;9.00;;;12.00;99.90;;;;;;5020479;28;20483;-62
2022/12/26 10:03:19;;;;;;;21.70;8.30;;;12.00;99.90;;;;;;5029559;28;20480;-62
2022/12/26 10:06:09;;;;;;;19.80;8.03;;;12.00;99.90;;;;;;5015701;28;20560;-62
2022/12/26 10:08:48;;;;;;;17.03;6.20;;;12.10;99.90;;;;;;5017033;28;20801;-62
2022/12/26 10:11:19;;;;;;;16.83;8.53;;;12.00;99.90;;;;;;5021618;28;20489;-62
2022/12/26 10:13:55;;;;;;;29.77;11.30;;;12.00;99.90;;;;;;5024659;28;20542;-62
2022/12/26 10:16:35;;;;;;;20.10;9.40;;;12.10;99.90;;;;;;5026132;28;20834;-62
2022/12/26 10:19:09;;;;;;;15.90;6.37;;;12.00;99.90;;;;;;5033229;28;20530;-62
2022/12/26 10:21:53;;;;;;;12.60;6.50;;;12.10;99.90;;;;;;5014906;28;20891;-61
2022/12/26 10:24:22;;;;;;;20.70;7.07;;;12.20;99.90;;;;;;5018643;28;20992;-61
2022/12/26 10:26:52;;;;;;;32.30;11.43;;;12.30;99.90;;;;;;5027023;28;20471;-61
2022/12/26 10:29:24;;;;;;;14.07;8.17;;;12.30;99.90;;;;;;5016649;28;21143;-61
2022/12/26 10:31:56;;;;;;;24.30;10.17;;;12.30;99.90;;;;;;5037872;28;20495;-62
2022/12/26 10:34:27;;;;;;;18.23;8.97;;;12.20;99.90;;;;;;5035852;28;20480;-62
2022/12/26 10:36:59;;;;;;;26.60;8.67;;;12.30;99.90;;;;;;5028986;28;20935;-61
2022/12/26 10:39:39;;;;;;;24.20;9.27;;;12.30;99.90;;;;;;5028353;28;20487;-61
2022/12/26 10:42:14;;;;;;;12.13;4.50;;;12.30;99.90;;;;;;5023782;28;20972;-61
2022/12/26 10:44:41;;;;;;;22.63;10.13;;;12.30;99.90;;;;;;5017463;28;20866;-62
2022/12/26 10:47:23;;;;;;;12.83;7.97;;;12.20;99.90;;;;;;5028469;28;20483;-60
2022/12/26 10:49:50;;;;;;;30.63;10.73;;;13.00;99.90;;;;;;4998017;28;20477;-61
2022/12/26 10:52:18;;;;;;;17.87;9.13;;;12.30;99.90;;;;;;5015268;28;21115;-61
2022/12/26 10:54:49;;;;;;;27.07;10.07;;;12.10;99.90;;;;;;4997028;28;20952;-61
2022/12/26 10:57:16;;;;;;;23.80;10.00;;;12.10;99.90;;;;;;5011812;28;20874;-62
2022/12/26 10:59:45;;;;;;;27.33;11.00;;;12.20;99.90;;;;;;5006601;28;20488;-62
2022/12/26 11:02:24;;;;;;;18.03;7.80;;;12.30;99.90;;;;;;5004927;28;20475;-61
2022/12/26 11:04:59;;;;;;;28.23;10.43;;;12.40;99.90;;;;;;5012633;28;20483;-61
2022/12/26 11:07:30;;;;;;;16.23;7.27;;;12.50;99.90;;;;;;5012554;28;20491;-61
2022/12/26 11:09:58;;;;;;;23.83;9.83;;;12.60;99.90;;;;;;5010224;28;20583;-61
2022/12/26 11:12:30;;;;;;;18.07;6.80;;;12.60;99.90;;;;;;5008456;28;20477;-62
2022/12/26 11:15:00;;;;;;;23.40;9.70;;;12.50;99.90;;;;;;5021624;28;20904;-62
2022/12/26 11:17:30;;;;;;;21.70;8.93;;;12.60;99.90;;;;;;5001699;28;20487;-62
2022/12/26 11:20:27;;;;;;;24.50;7.60;;;12.70;99.90;;;;;;5035335;28;20495;-61
2022/12/26 11:22:55;;;;;;;26.47;9.23;;;12.60;99.90;;;;;;5016287;28;20480;-61
2022/12/26 11:25:24;;;;;;;15.07;7.53;;;12.60;99.90;;;;;;5028675;28;21093;-62
2022/12/26 11:27:53;;;;;;;30.13;12.80;;;12.70;99.90;;;;;;5005035;28;20554;-61
2022/12/26 11:30:26;;;;;;;30.20;6.80;;;12.70;99.90;;;;;;4999025;28;20481;-62
2022/12/26 11:33:07;;;;;;;24.73;10.47;;;12.80;99.90;;;;;;4999912;28;20481;-61
2022/12/26 11:35:36;;;;;;;31.23;8.10;;;12.70;99.90;;;;;;5007431;28;20479;-62
2022/12/26 11:38:05;;;;;;;10.27;5.70;;;12.80;99.90;;;;;;5027325;28;20526;-61
2022/12/26 11:40:36;;;;;;;14.53;6.60;;;12.70;99.90;;;;;;5004898;28;20891;-62
2022/12/26 11:43:05;;;;;;;13.80;5.40;;;12.70;99.90;;;;;;4990231;28;20607;-62
2022/12/26 11:45:36;;;;;;;10.40;5.20;;;12.70;99.90;;;;;;5045141;28;20483;-62
2022/12/26 11:48:18;;;;;;;13.40;6.50;;;12.80;99.90;;;;;;5007790;28;21030;-62
2022/12/26 11:50:46;;;;;;;21.83;9.67;;;12.80;99.90;;;;;;5018872;28;20473;-62
2022/12/26 11:53:17;;;;;;;12.03;5.83;;;12.80;99.90;;;;;;5018155;28;20522;-61
2022/12/26 11:55:44;;;;;;;23.87;8.37;;;12.80;99.90;;;;;;5022233;28;21088;-61
2022/12/26 11:58:18;;;;;;;10.43;4.80;;;12.80;99.90;;;;;;5019268;28;20473;-62
2022/12/26 12:01:05;;;;;;;21.07;8.03;;;12.80;99.90;;;;;;5007516;28;20481;-62
2022/12/26 12:03:36;;;;;;;12.30;5.13;;;12.70;99.90;;;;;;5025109;28;20468;-62
2022/12/26 12:06:14;;;;;;;10.97;5.20;;;12.70;99.90;;;;;;5037809;28;20503;-62
2022/12/26 12:08:47;;;;;;;19.63;7.70;;;12.60;99.90;;;;;;5027052;28;21034;-62
2022/12/26 12:11:21;;;;;;;15.70;5.10;;;12.70;99.90;;;;;;5034981;28;20488;-62
2022/12/26 12:14:13;;;;;;;23.03;8.90;;;12.70;99.90;;;;;;5037437;28;20487;-62
2022/12/26 12:16:50;;;;;;;14.60;4.57;;;12.70;99.90;;;;;;5032008;28;20992;-61
2022/12/26 12:19:38;;;;;;;18.00;5.53;;;12.80;99.90;;;;;;5027118;28;20537;-61
2022/12/26 12:22:26;;;;;;;10.20;4.80;;;12.80;99.90;;;;;;5027740;28;21233;-61
2022/12/26 12:25:13;;;;;;;26.90;9.47;;;12.80;99.90;;;;;;5039391;28;20484;-61
2022/12/26 12:27:46;;;;;;;11.87;5.20;;;12.70;99.90;;;;;;5016121;28;20485;-61
2022/12/26 12:30:18;;;;;;;14.23;6.60;;;12.80;99.90;;;;;;5015440;28;20551;-61
2022/12/26 12:32:59;;;;;;;27.90;11.07;;;12.80;99.90;;;;;;5015258;28;21161;-62
2022/12/26 12:35:49;;;;;;;12.13;5.80;;;12.80;99.90;;;;;;5021470;28;20859;-62
2022/12/26 12:38:28;;;;;;;11.27;5.57;;;12.80;99.90;;;;;;5004613;28;20576;-62
2022/12/26 12:41:05;;;;;;;18.77;8.23;;;12.70;99.90;;;;;;5010536;28;20495;-62
2022/12/26 12:43:41;;;;;;;13.20;5.13;;;12.70;99.90;;;;;;5027019;28;20543;-62
2022/12/26 12:46:17;;;;;;;12.33;5.03;;;12.70;99.90;;;;;;5026375;28;20472;-61
2022/12/26 12:49:16;;;;;;;17.30;8.20;;;12.80;99.90;;;;;;5027577;28;20480;-62
2022/12/26 12:51:50;;;;;;;14.10;6.37;;;12.80;99.90;;;;;;5033432;28;20481;-63
2022/12/26 12:54:35;;;;;;;10.50;4.90;;;12.90;99.90;;;;;;4995557;28;20734;-62
2022/12/26 12:57:10;;;;;;;8.00;4.80;;;12.70;99.90;;;;;;5024042;28;20569;-62
2022/12/26 12:59:49;;;;;;;29.27;6.53;;;12.80;99.90;;;;;;5017871;28;20939;-62
2022/12/26 13:02:20;;;;;;;11.17;5.20;;;12.80;99.90;;;;;;5015288;28;20483;-61
2022/12/26 13:04:53;;;;;;;24.27;9.90;;;12.90;99.90;;;;;;5020342;28;20684;-62
2022/12/26 13:07:26;;;;;;;16.60;6.90;;;13.00;99.90;;;;;;5027812;28;20817;-62
2022/12/26 13:09:57;;;;;;;25.73;8.40;;;12.90;99.90;;;;;;5033715;28;20481;-62
2022/12/26 13:12:27;;;;;;;10.80;5.10;;;12.90;99.90;;;;;;5037101;28;20488;-62
2022/12/26 13:14:58;;;;;;;21.30;8.23;;;12.90;99.90;;;;;;5027933;28;20913;-62
2022/12/26 13:17:30;;;;;;;26.00;5.97;;;13.00;99.90;;;;;;5023818;28;20491;-62
2022/12/26 13:20:01;;;;;;;20.00;7.03;;;13.00;99.90;;;;;;5046516;28;20819;-63
2022/12/26 13:24:22;;;;;;;17.30;7.30;;;12.90;99.90;;;;;;5034483;28;20484;-62
2022/12/26 13:25:25;;;;;;;15.07;6.00;;;12.90;99.90;;;;;;5006704;28;20495;-62
2022/12/26 13:28:08;;;;;;;29.37;9.93;;;12.90;99.90;;;;;;5020084;28;20481;-62
2022/12/26 13:30:35;;;;;;;13.60;5.90;;;12.80;99.90;;;;;;5004636;28;20530;-62
2022/12/26 13:33:02;;;;;;;11.90;4.93;;;12.80;99.90;;;;;;5010523;28;20475;-62
2022/12/26 13:35:52;;;;;;;16.17;4.47;;;12.80;99.90;;;;;;5005564;28;20484;-62
2022/12/26 13:38:21;;;;;;;18.03;7.03;;;12.80;99.90;;;;;;5028585;28;20525;-62
2022/12/26 13:43:53;;;;;;;16.93;6.73;;;12.80;99.90;;;;;;5026778;28;20899;-61
2022/12/26 13:43:59;;;;;;;35.57;10.03;;;12.80;99.90;;;;;;5009359;28;20638;-62
2022/12/26 13:46:53;;;;;;;33.17;10.97;;;12.80;99.90;;;;;;5004730;28;20509;-61
2022/12/26 13:49:28;;;;;;;20.47;6.47;;;12.70;99.90;;;;;;5007902;28;20830;-62
2022/12/26 13:51:58;;;;;;;59.47;17.80;;;12.70;99.90;;;;;;4992133;28;20483;-62
2022/12/26 13:54:28;;;;;;;23.10;6.90;;;12.60;99.90;;;;;;5022503;28;20882;-62
2022/12/26 13:57:30;;;;;;;45.63;12.00;;;12.60;99.90;;;;;;5018184;28;21068;-62
2022/12/26 14:00:17;;;;;;;26.07;8.67;;;12.60;99.90;;;;;;5000940;28;20525;-62
2022/12/26 14:03:15;;;;;;;23.70;7.63;;;12.60;99.90;;;;;;5004636;28;20558;-62
2022/12/26 14:05:52;;;;;;;20.00;7.97;;;12.50;99.90;;;;;;5006875;28;20478;-62
2022/12/26 14:08:30;;;;;;;21.63;7.60;;;12.50;99.90;;;;;;5013038;28;21229;-62
2022/12/26 14:11:10;;;;;;;25.33;9.20;;;12.60;99.90;;;;;;4989573;28;20496;-62
2022/12/26 14:13:52;;;;;;;16.23;6.63;;;12.50;99.90;;;;;;5011370;28;20488;-62
2022/12/26 14:16:27;;;;;;;17.47;6.10;;;12.60;99.90;;;;;;5010420;28;20490;-62
2022/12/26 14:19:05;;;;;;;30.13;9.10;;;12.50;99.90;;;;;;5018470;28;20828;-62
2022/12/26 14:21:43;;;;;;;31.27;6.50;;;12.60;99.90;;;;;;5003094;28;20483;-61
2022/12/26 14:24:23;;;;;;;14.43;6.30;;;12.50;99.90;;;;;;4989565;28;20547;-61
2022/12/26 14:27:00;;;;;;;26.17;7.77;;;12.60;99.90;;;;;;5006150;28;21028;-61
2022/12/26 14:29:32;;;;;;;22.83;8.60;;;12.50;99.90;;;;;;4981482;28;21058;-61
2022/12/26 14:32:13;;;;;;;18.33;5.37;;;12.40;99.90;;;;;;5037195;28;20982;-62
2022/12/26 14:35:01;;;;;;;24.40;9.27;;;12.40;99.90;;;;;;5000464;28;20536;-62
2022/12/26 14:37:42;;;;;;;20.83;7.60;;;12.40;99.90;;;;;;5007209;28;20965;-61
2022/12/26 14:40:25;;;;;;;20.23;7.33;;;12.30;99.90;;;;;;5020663;28;20531;-62
2022/12/26 14:43:12;;;;;;;25.20;10.17;;;12.30;99.90;;;;;;5012522;28;20557;-62
2022/12/26 14:45:43;;;;;;;21.90;6.63;;;12.20;99.90;;;;;;5009711;28;20604;-61
2022/12/26 14:48:44;;;;;;;15.37;5.63;;;12.30;99.90;;;;;;5011882;28;20484;-62
2022/12/26 14:51:41;;;;;;;16.23;5.50;;;12.20;99.90;;;;;;4939242;28;20570;-61
2022/12/26 14:54:45;;;;;;;16.80;5.43;;;12.10;99.90;;;;;;4998576;28;20488;-61
2022/12/26 14:57:41;;;;;;;12.47;4.83;;;12.10;99.90;;;;;;5024494;28;20507;-61
2022/12/26 15:00:23;;;;;;;27.03;7.03;;;12.10;99.90;;;;;;5008562;28;20516;-61